sensor_id;sensor_type;location;lat;lon;timestamp;P1;durP1;ratioP1;P2;durP2;ratioP2
4652;SDS011;9900;48.738;9.306;2022-11-24T00:01:27;16.00;;;3.43;;
4652;SDS011;9900;48.738;9.306;2022-11-24T00:03:57;10.83;;;3.63;;
4652;SDS011;9900;48.738;9.306;2022-11-24T00:06:28;12.67;;;4.10;;
4652;SDS011;9900;48.738;9.306;2022-11-24T00:08:58;8.63;;;3.73;;
4652;SDS011;9900;48.738;9.306;2022-11-24T00:11:27;11.03;;;3.00;;
4652;SDS011;9900;48.738;9.306;2022-11-24T00:13:57;8.20;;;2.90;;
4652;SDS011;9900;48.738;9.306;2022-11-24T00:16:26;14.67;;;3.50;;
4652;SDS011;9900;48.738;9.306;2022-11-24T00:18:57;13.30;;;3.87;;
4652;SDS011;9900;48.738;9.306;2022-11-24T00:21:29;7.40;;;4.47;;
4652;SDS011;9900;48.738;9.306;2022-11-24T00:23:58;16.00;;;4.97;;
4652;SDS011;9900;48.738;9.306;2022-11-24T00:26:28;9.80;;;4.30;;
4652;SDS011;9900;48.738;9.306;2022-11-24T00:28:58;6.70;;;4.20;;
4652;SDS011;9900;48.738;9.306;2022-11-24T00:31:29;13.37;;;4.20;;
4652;SDS011;9900;48.738;9.306;2022-11-24T00:33:59;6.13;;;3.10;;
4652;SDS011;9900;48.738;9.306;2022-11-24T00:36:30;13.43;;;3.97;;
4652;SDS011;9900;48.738;9.306;2022-11-24T00:39:02;8.50;;;3.80;;
4652;SDS011;9900;48.738;9.306;2022-11-24T00:41:31;7.37;;;3.50;;
4652;SDS011;9900;48.738;9.306;2022-11-24T00:44:00;9.60;;;3.30;;
4652;SDS011;9900;48.738;9.306;2022-11-24T00:46:29;10.10;;;2.60;;
4652;SDS011;9900;48.738;9.306;2022-11-24T00:48:58;8.20;;;2.80;;
4652;SDS011;9900;48.738;9.306;2022-11-24T00:51:28;9.43;;;2.70;;
4652;SDS011;9900;48.738;9.306;2022-11-24T00:53:58;8.60;;;3.50;;
4652;SDS011;9900;48.738;9.306;2022-11-24T00:56:27;9.13;;;3.20;;
4652;SDS011;9900;48.738;9.306;2022-11-24T00:58:57;8.70;;;3.60;;
4652;SDS011;9900;48.738;9.306;2022-11-24T01:01:26;11.30;;;3.97;;
4652;SDS011;9900;48.738;9.306;2022-11-24T01:03:57;6.83;;;2.93;;
4652;SDS011;9900;48.738;9.306;2022-11-24T01:06:29;10.50;;;3.20;;
4652;SDS011;9900;48.738;9.306;2022-11-24T01:08:58;9.27;;;3.27;;
4652;SDS011;9900;48.738;9.306;2022-11-24T01:11:27;5.30;;;2.90;;
4652;SDS011;9900;48.738;9.306;2022-11-24T01:14:18;7.33;;;3.27;;
4652;SDS011;9900;48.738;9.306;2022-11-24T01:16:47;9.97;;;3.43;;
4652;SDS011;9900;48.738;9.306;2022-11-24T01:19:16;5.57;;;2.53;;
4652;SDS011;9900;48.738;9.306;2022-11-24T01:21:46;8.70;;;3.27;;
4652;SDS011;9900;48.738;9.306;2022-11-24T01:24:14;11.63;;;3.23;;
4652;SDS011;9900;48.738;9.306;2022-11-24T01:26:43;12.83;;;3.17;;
4652;SDS011;9900;48.738;9.306;2022-11-24T01:29:12;7.80;;;3.00;;
4652;SDS011;9900;48.738;9.306;2022-11-24T01:31:41;7.80;;;3.10;;
4652;SDS011;9900;48.738;9.306;2022-11-24T01:34:09;19.83;;;3.10;;
4652;SDS011;9900;48.738;9.306;2022-11-24T01:36:39;6.33;;;3.10;;
4652;SDS011;9900;48.738;9.306;2022-11-24T01:39:09;11.30;;;2.73;;
4652;SDS011;9900;48.738;9.306;2022-11-24T01:41:37;6.93;;;2.90;;
4652;SDS011;9900;48.738;9.306;2022-11-24T01:44:19;5.80;;;2.33;;
4652;SDS011;9900;48.738;9.306;2022-11-24T01:46:50;4.63;;;2.33;;
4652;SDS011;9900;48.738;9.306;2022-11-24T01:49:20;5.80;;;2.87;;
4652;SDS011;9900;48.738;9.306;2022-11-24T01:51:52;4.77;;;1.90;;
4652;SDS011;9900;48.738;9.306;2022-11-24T01:54:25;8.37;;;2.70;;
4652;SDS011;9900;48.738;9.306;2022-11-24T01:56:57;6.60;;;2.77;;
4652;SDS011;9900;48.738;9.306;2022-11-24T01:59:29;8.93;;;2.30;;
4652;SDS011;9900;48.738;9.306;2022-11-24T02:01:58;8.87;;;2.80;;
4652;SDS011;9900;48.738;9.306;2022-11-24T02:04:27;9.30;;;2.70;;
4652;SDS011;9900;48.738;9.306;2022-11-24T02:06:57;6.50;;;2.30;;
4652;SDS011;9900;48.738;9.306;2022-11-24T02:09:28;6.07;;;1.80;;
4652;SDS011;9900;48.738;9.306;2022-11-24T02:12:00;11.90;;;2.73;;
4652;SDS011;9900;48.738;9.306;2022-11-24T02:14:29;8.20;;;1.70;;
4652;SDS011;9900;48.738;9.306;2022-11-24T02:16:58;7.53;;;1.80;;
4652;SDS011;9900;48.738;9.306;2022-11-24T02:19:30;4.00;;;1.63;;
4652;SDS011;9900;48.738;9.306;2022-11-24T02:22:04;5.53;;;1.70;;
4652;SDS011;9900;48.738;9.306;2022-11-24T02:24:38;7.23;;;1.50;;
4652;SDS011;9900;48.738;9.306;2022-11-24T02:27:10;5.80;;;2.30;;
4652;SDS011;9900;48.738;9.306;2022-11-24T02:29:39;6.30;;;1.90;;
4652;SDS011;9900;48.738;9.306;2022-11-24T02:32:08;4.47;;;1.83;;
4652;SDS011;9900;48.738;9.306;2022-11-24T02:34:37;10.10;;;2.00;;
4652;SDS011;9900;48.738;9.306;2022-11-24T02:37:05;7.00;;;1.70;;
4652;SDS011;9900;48.738;9.306;2022-11-24T02:39:34;2.90;;;1.30;;
4652;SDS011;9900;48.738;9.306;2022-11-24T02:42:03;4.50;;;1.37;;
4652;SDS011;9900;48.738;9.306;2022-11-24T02:44:35;10.27;;;1.63;;
4652;SDS011;9900;48.738;9.306;2022-11-24T02:47:06;5.40;;;1.20;;
4652;SDS011;9900;48.738;9.306;2022-11-24T02:49:35;4.33;;;1.43;;
4652;SDS011;9900;48.738;9.306;2022-11-24T02:52:04;12.40;;;1.70;;
4652;SDS011;9900;48.738;9.306;2022-11-24T02:54:33;9.87;;;1.90;;
4652;SDS011;9900;48.738;9.306;2022-11-24T02:57:03;8.97;;;1.70;;
4652;SDS011;9900;48.738;9.306;2022-11-24T02:59:31;6.57;;;1.53;;
4652;SDS011;9900;48.738;9.306;2022-11-24T03:02:01;11.70;;;2.13;;
4652;SDS011;9900;48.738;9.306;2022-11-24T03:04:30;5.73;;;1.93;;
4652;SDS011;9900;48.738;9.306;2022-11-24T03:06:59;1.37;;;1.17;;
4652;SDS011;9900;48.738;9.306;2022-11-24T03:09:28;5.67;;;2.07;;
4652;SDS011;9900;48.738;9.306;2022-11-24T03:11:57;9.60;;;2.07;;
4652;SDS011;9900;48.738;9.306;2022-11-24T03:14:26;7.67;;;1.67;;
4652;SDS011;9900;48.738;9.306;2022-11-24T03:16:54;6.50;;;2.20;;
4652;SDS011;9900;48.738;9.306;2022-11-24T03:19:24;4.07;;;1.20;;
4652;SDS011;9900;48.738;9.306;2022-11-24T03:21:53;6.10;;;2.37;;
4652;SDS011;9900;48.738;9.306;2022-11-24T03:24:21;10.90;;;3.70;;
4652;SDS011;9900;48.738;9.306;2022-11-24T03:26:50;6.50;;;2.00;;
4652;SDS011;9900;48.738;9.306;2022-11-24T03:29:19;6.07;;;1.90;;
4652;SDS011;9900;48.738;9.306;2022-11-24T03:31:48;4.67;;;1.80;;
4652;SDS011;9900;48.738;9.306;2022-11-24T03:34:16;3.80;;;1.70;;
4652;SDS011;9900;48.738;9.306;2022-11-24T03:36:46;8.47;;;2.23;;
4652;SDS011;9900;48.738;9.306;2022-11-24T03:39:15;4.60;;;1.63;;
4652;SDS011;9900;48.738;9.306;2022-11-24T03:41:43;5.13;;;1.80;;
4652;SDS011;9900;48.738;9.306;2022-11-24T03:44:12;8.97;;;2.00;;
4652;SDS011;9900;48.738;9.306;2022-11-24T03:46:41;7.73;;;2.30;;
4652;SDS011;9900;48.738;9.306;2022-11-24T03:49:09;8.23;;;1.50;;
4652;SDS011;9900;48.738;9.306;2022-11-24T03:51:38;4.00;;;1.70;;
4652;SDS011;9900;48.738;9.306;2022-11-24T03:54:08;8.80;;;2.57;;
4652;SDS011;9900;48.738;9.306;2022-11-24T03:56:36;3.20;;;1.87;;
4652;SDS011;9900;48.738;9.306;2022-11-24T03:59:05;7.07;;;2.23;;
4652;SDS011;9900;48.738;9.306;2022-11-24T04:01:34;3.60;;;2.07;;
4652;SDS011;9900;48.738;9.306;2022-11-24T04:04:03;6.20;;;1.93;;
4652;SDS011;9900;48.738;9.306;2022-11-24T04:06:32;5.20;;;1.73;;
4652;SDS011;9900;48.738;9.306;2022-11-24T04:09:01;4.80;;;1.87;;
4652;SDS011;9900;48.738;9.306;2022-11-24T04:11:31;5.60;;;1.60;;
4652;SDS011;9900;48.738;9.306;2022-11-24T04:14:17;3.97;;;2.20;;
4652;SDS011;9900;48.738;9.306;2022-11-24T04:16:45;2.40;;;1.30;;
4652;SDS011;9900;48.738;9.306;2022-11-24T04:19:14;4.80;;;1.23;;
4652;SDS011;9900;48.738;9.306;2022-11-24T04:21:42;9.30;;;1.83;;
4652;SDS011;9900;48.738;9.306;2022-11-24T04:24:11;7.13;;;1.80;;
4652;SDS011;9900;48.738;9.306;2022-11-24T04:26:42;3.40;;;1.70;;
4652;SDS011;9900;48.738;9.306;2022-11-24T04:29:10;3.33;;;1.23;;
4652;SDS011;9900;48.738;9.306;2022-11-24T04:31:39;2.50;;;1.30;;
4652;SDS011;9900;48.738;9.306;2022-11-24T04:34:09;5.33;;;1.47;;
4652;SDS011;9900;48.738;9.306;2022-11-24T04:36:38;8.27;;;1.70;;
4652;SDS011;9900;48.738;9.306;2022-11-24T04:39:07;4.17;;;1.40;;
4652;SDS011;9900;48.738;9.306;2022-11-24T04:41:53;2.93;;;1.50;;
4652;SDS011;9900;48.738;9.306;2022-11-24T04:44:22;2.10;;;1.00;;
4652;SDS011;9900;48.738;9.306;2022-11-24T04:46:51;5.10;;;1.40;;
4652;SDS011;9900;48.738;9.306;2022-11-24T04:49:19;5.90;;;1.60;;
4652;SDS011;9900;48.738;9.306;2022-11-24T04:51:48;7.27;;;1.70;;
4652;SDS011;9900;48.738;9.306;2022-11-24T04:54:17;4.10;;;1.40;;
4652;SDS011;9900;48.738;9.306;2022-11-24T04:56:48;5.07;;;2.20;;
4652;SDS011;9900;48.738;9.306;2022-11-24T04:59:19;7.67;;;1.57;;
4652;SDS011;9900;48.738;9.306;2022-11-24T05:01:47;4.10;;;1.47;;
4652;SDS011;9900;48.738;9.306;2022-11-24T05:04:16;5.93;;;1.83;;
4652;SDS011;9900;48.738;9.306;2022-11-24T05:06:46;3.43;;;1.50;;
4652;SDS011;9900;48.738;9.306;2022-11-24T05:09:15;7.00;;;1.90;;
4652;SDS011;9900;48.738;9.306;2022-11-24T05:11:44;10.00;;;2.07;;
4652;SDS011;9900;48.738;9.306;2022-11-24T05:14:13;6.10;;;1.77;;
4652;SDS011;9900;48.738;9.306;2022-11-24T05:16:43;6.00;;;2.10;;
4652;SDS011;9900;48.738;9.306;2022-11-24T05:19:12;7.70;;;2.30;;
4652;SDS011;9900;48.738;9.306;2022-11-24T05:21:40;6.10;;;1.97;;
4652;SDS011;9900;48.738;9.306;2022-11-24T05:24:09;4.57;;;1.53;;
4652;SDS011;9900;48.738;9.306;2022-11-24T05:26:37;7.43;;;1.90;;
4652;SDS011;9900;48.738;9.306;2022-11-24T05:29:06;4.23;;;1.80;;
4652;SDS011;9900;48.738;9.306;2022-11-24T05:31:35;4.63;;;1.17;;
4652;SDS011;9900;48.738;9.306;2022-11-24T05:34:05;11.40;;;2.20;;
4652;SDS011;9900;48.738;9.306;2022-11-24T05:36:33;6.67;;;1.73;;
4652;SDS011;9900;48.738;9.306;2022-11-24T05:39:20;3.13;;;1.73;;
4652;SDS011;9900;48.738;9.306;2022-11-24T05:41:49;8.73;;;1.70;;
4652;SDS011;9900;48.738;9.306;2022-11-24T05:44:17;5.77;;;1.70;;
4652;SDS011;9900;48.738;9.306;2022-11-24T05:46:46;7.13;;;1.60;;
4652;SDS011;9900;48.738;9.306;2022-11-24T05:49:16;4.07;;;1.80;;
4652;SDS011;9900;48.738;9.306;2022-11-24T05:51:45;3.67;;;1.70;;
4652;SDS011;9900;48.738;9.306;2022-11-24T05:54:13;3.53;;;1.83;;
4652;SDS011;9900;48.738;9.306;2022-11-24T05:56:42;4.10;;;1.63;;
4652;SDS011;9900;48.738;9.306;2022-11-24T05:59:11;5.47;;;1.90;;
4652;SDS011;9900;48.738;9.306;2022-11-24T06:01:39;3.63;;;2.17;;
4652;SDS011;9900;48.738;9.306;2022-11-24T06:04:08;6.80;;;2.17;;
4652;SDS011;9900;48.738;9.306;2022-11-24T06:06:38;3.87;;;2.10;;
4652;SDS011;9900;48.738;9.306;2022-11-24T06:09:07;4.93;;;2.57;;
4652;SDS011;9900;48.738;9.306;2022-11-24T06:11:35;5.80;;;1.87;;
4652;SDS011;9900;48.738;9.306;2022-11-24T06:14:04;5.70;;;2.37;;
4652;SDS011;9900;48.738;9.306;2022-11-24T06:16:37;11.40;;;2.87;;
4652;SDS011;9900;48.738;9.306;2022-11-24T06:19:06;3.77;;;1.83;;
4652;SDS011;9900;48.738;9.306;2022-11-24T06:21:37;9.33;;;2.23;;
4652;SDS011;9900;48.738;9.306;2022-11-24T06:24:06;4.97;;;2.50;;
4652;SDS011;9900;48.738;9.306;2022-11-24T06:26:35;5.50;;;2.57;;
4652;SDS011;9900;48.738;9.306;2022-11-24T06:29:04;8.40;;;2.47;;
4652;SDS011;9900;48.738;9.306;2022-11-24T06:31:32;5.50;;;2.20;;
4652;SDS011;9900;48.738;9.306;2022-11-24T06:34:04;11.77;;;2.40;;
4652;SDS011;9900;48.738;9.306;2022-11-24T06:36:33;7.17;;;2.40;;
4652;SDS011;9900;48.738;9.306;2022-11-24T06:39:03;7.53;;;1.80;;
4652;SDS011;9900;48.738;9.306;2022-11-24T06:41:32;7.17;;;2.00;;
4652;SDS011;9900;48.738;9.306;2022-11-24T06:44:01;8.73;;;1.93;;
4652;SDS011;9900;48.738;9.306;2022-11-24T06:46:30;5.37;;;2.00;;
4652;SDS011;9900;48.738;9.306;2022-11-24T06:48:59;11.27;;;2.50;;
4652;SDS011;9900;48.738;9.306;2022-11-24T06:51:28;9.10;;;2.70;;
4652;SDS011;9900;48.738;9.306;2022-11-24T06:53:57;5.80;;;2.47;;
4652;SDS011;9900;48.738;9.306;2022-11-24T06:56:27;11.67;;;2.97;;
4652;SDS011;9900;48.738;9.306;2022-11-24T06:58:55;6.80;;;3.53;;
4652;SDS011;9900;48.738;9.306;2022-11-24T07:01:25;9.67;;;2.93;;
4652;SDS011;9900;48.738;9.306;2022-11-24T07:03:55;8.27;;;2.70;;
4652;SDS011;9900;48.738;9.306;2022-11-24T07:06:24;12.40;;;2.40;;
4652;SDS011;9900;48.738;9.306;2022-11-24T07:08:54;8.47;;;2.90;;
4652;SDS011;9900;48.738;9.306;2022-11-24T07:11:23;6.77;;;2.23;;
4652;SDS011;9900;48.738;9.306;2022-11-24T07:13:54;7.43;;;2.27;;
4652;SDS011;9900;48.738;9.306;2022-11-24T07:16:27;13.63;;;2.53;;
4652;SDS011;9900;48.738;9.306;2022-11-24T07:18:56;9.80;;;3.00;;
4652;SDS011;9900;48.738;9.306;2022-11-24T07:21:25;8.70;;;3.33;;
4652;SDS011;9900;48.738;9.306;2022-11-24T07:23:55;5.00;;;2.10;;
4652;SDS011;9900;48.738;9.306;2022-11-24T07:26:25;8.10;;;3.00;;
4652;SDS011;9900;48.738;9.306;2022-11-24T07:28:55;5.77;;;2.50;;
4652;SDS011;9900;48.738;9.306;2022-11-24T07:31:23;8.60;;;2.40;;
4652;SDS011;9900;48.738;9.306;2022-11-24T07:33:53;10.00;;;3.00;;
4652;SDS011;9900;48.738;9.306;2022-11-24T07:36:22;6.60;;;2.77;;
4652;SDS011;9900;48.738;9.306;2022-11-24T07:38:51;10.33;;;2.87;;
4652;SDS011;9900;48.738;9.306;2022-11-24T07:41:20;13.00;;;2.50;;
4652;SDS011;9900;48.738;9.306;2022-11-24T07:43:48;12.10;;;2.97;;
4652;SDS011;9900;48.738;9.306;2022-11-24T07:46:19;11.03;;;2.80;;
4652;SDS011;9900;48.738;9.306;2022-11-24T07:48:48;14.43;;;3.97;;
4652;SDS011;9900;48.738;9.306;2022-11-24T07:51:16;7.40;;;2.70;;
4652;SDS011;9900;48.738;9.306;2022-11-24T07:53:45;7.63;;;3.20;;
4652;SDS011;9900;48.738;9.306;2022-11-24T07:56:14;8.80;;;3.27;;
4652;SDS011;9900;48.738;9.306;2022-11-24T07:58:42;11.73;;;3.53;;
4652;SDS011;9900;48.738;9.306;2022-11-24T08:01:20;10.53;;;3.53;;
4652;SDS011;9900;48.738;9.306;2022-11-24T08:03:49;8.33;;;3.70;;
4652;SDS011;9900;48.738;9.306;2022-11-24T08:06:17;12.03;;;4.27;;
4652;SDS011;9900;48.738;9.306;2022-11-24T08:08:55;12.50;;;3.03;;
4652;SDS011;9900;48.738;9.306;2022-11-24T08:11:24;7.13;;;2.73;;
4652;SDS011;9900;48.738;9.306;2022-11-24T08:13:53;11.30;;;3.30;;
4652;SDS011;9900;48.738;9.306;2022-11-24T08:16:23;9.00;;;2.93;;
4652;SDS011;9900;48.738;9.306;2022-11-24T08:18:53;11.97;;;3.70;;
4652;SDS011;9900;48.738;9.306;2022-11-24T08:21:22;12.43;;;4.60;;
4652;SDS011;9900;48.738;9.306;2022-11-24T08:23:54;9.33;;;3.00;;
4652;SDS011;9900;48.738;9.306;2022-11-24T08:26:24;15.97;;;3.43;;
4652;SDS011;9900;48.738;9.306;2022-11-24T08:28:54;18.63;;;3.70;;
4652;SDS011;9900;48.738;9.306;2022-11-24T08:31:26;12.93;;;3.53;;
4652;SDS011;9900;48.738;9.306;2022-11-24T08:34:00;39.53;;;11.23;;
4652;SDS011;9900;48.738;9.306;2022-11-24T08:36:29;29.07;;;5.73;;
4652;SDS011;9900;48.738;9.306;2022-11-24T08:38:58;12.07;;;4.27;;
4652;SDS011;9900;48.738;9.306;2022-11-24T08:41:28;21.07;;;5.20;;
4652;SDS011;9900;48.738;9.306;2022-11-24T08:43:57;16.73;;;5.70;;
4652;SDS011;9900;48.738;9.306;2022-11-24T08:46:27;14.70;;;5.17;;
4652;SDS011;9900;48.738;9.306;2022-11-24T08:48:55;18.37;;;5.13;;
4652;SDS011;9900;48.738;9.306;2022-11-24T08:51:25;15.83;;;4.30;;
4652;SDS011;9900;48.738;9.306;2022-11-24T08:53:54;17.23;;;3.73;;
4652;SDS011;9900;48.738;9.306;2022-11-24T08:56:24;17.00;;;3.83;;
4652;SDS011;9900;48.738;9.306;2022-11-24T08:58:54;12.40;;;3.80;;
4652;SDS011;9900;48.738;9.306;2022-11-24T09:01:23;12.77;;;3.97;;
4652;SDS011;9900;48.738;9.306;2022-11-24T09:03:53;12.10;;;3.50;;
4652;SDS011;9900;48.738;9.306;2022-11-24T09:06:23;11.67;;;3.40;;
4652;SDS011;9900;48.738;9.306;2022-11-24T09:08:53;13.40;;;3.73;;
4652;SDS011;9900;48.738;9.306;2022-11-24T09:11:23;16.53;;;4.03;;
4652;SDS011;9900;48.738;9.306;2022-11-24T09:13:52;14.63;;;5.03;;
4652;SDS011;9900;48.738;9.306;2022-11-24T09:16:22;14.10;;;3.63;;
4652;SDS011;9900;48.738;9.306;2022-11-24T09:18:56;12.20;;;3.97;;
4652;SDS011;9900;48.738;9.306;2022-11-24T09:21:26;16.03;;;4.27;;
4652;SDS011;9900;48.738;9.306;2022-11-24T09:23:56;11.73;;;4.07;;
4652;SDS011;9900;48.738;9.306;2022-11-24T09:26:25;12.83;;;4.00;;
4652;SDS011;9900;48.738;9.306;2022-11-24T09:28:56;8.63;;;3.07;;
4652;SDS011;9900;48.738;9.306;2022-11-24T09:31:26;15.37;;;3.47;;
4652;SDS011;9900;48.738;9.306;2022-11-24T09:33:58;14.27;;;3.47;;
4652;SDS011;9900;48.738;9.306;2022-11-24T09:36:27;12.70;;;3.60;;
4652;SDS011;9900;48.738;9.306;2022-11-24T09:38:57;20.60;;;2.80;;
4652;SDS011;9900;48.738;9.306;2022-11-24T09:41:31;8.60;;;2.80;;
4652;SDS011;9900;48.738;9.306;2022-11-24T09:44:12;4.93;;;1.73;;
4652;SDS011;9900;48.738;9.306;2022-11-24T09:47:00;9.43;;;1.93;;
4652;SDS011;9900;48.738;9.306;2022-11-24T09:49:38;5.73;;;1.23;;
4652;SDS011;9900;48.738;9.306;2022-11-24T09:52:28;5.33;;;1.67;;
4652;SDS011;9900;48.738;9.306;2022-11-24T09:55:10;4.40;;;1.50;;
4652;SDS011;9900;48.738;9.306;2022-11-24T09:57:55;2.63;;;1.40;;
4652;SDS011;9900;48.738;9.306;2022-11-24T10:00:30;5.13;;;1.70;;
4652;SDS011;9900;48.738;9.306;2022-11-24T10:03:01;3.07;;;1.57;;
4652;SDS011;9900;48.738;9.306;2022-11-24T10:05:32;2.87;;;1.30;;
4652;SDS011;9900;48.738;9.306;2022-11-24T10:08:07;4.00;;;1.13;;
4652;SDS011;9900;48.738;9.306;2022-11-24T10:10:40;2.70;;;0.90;;
4652;SDS011;9900;48.738;9.306;2022-11-24T10:13:17;3.13;;;1.00;;
4652;SDS011;9900;48.738;9.306;2022-11-24T10:15:56;2.00;;;1.20;;
4652;SDS011;9900;48.738;9.306;2022-11-24T10:18:38;5.33;;;1.50;;
4652;SDS011;9900;48.738;9.306;2022-11-24T10:21:16;2.50;;;1.30;;
4652;SDS011;9900;48.738;9.306;2022-11-24T10:23:57;3.00;;;0.90;;
4652;SDS011;9900;48.738;9.306;2022-11-24T10:26:42;5.73;;;1.70;;
4652;SDS011;9900;48.738;9.306;2022-11-24T10:29:19;2.60;;;1.10;;
4652;SDS011;9900;48.738;9.306;2022-11-24T10:31:52;3.37;;;1.20;;
4652;SDS011;9900;48.738;9.306;2022-11-24T10:34:24;2.90;;;1.30;;
4652;SDS011;9900;48.738;9.306;2022-11-24T10:36:59;1.97;;;1.33;;
4652;SDS011;9900;48.738;9.306;2022-11-24T10:39:31;3.80;;;1.10;;
4652;SDS011;9900;48.738;9.306;2022-11-24T10:42:04;2.43;;;1.00;;
4652;SDS011;9900;48.738;9.306;2022-11-24T10:44:37;2.77;;;1.00;;
4652;SDS011;9900;48.738;9.306;2022-11-24T10:47:10;2.43;;;1.23;;
4652;SDS011;9900;48.738;9.306;2022-11-24T10:49:45;1.80;;;0.93;;
4652;SDS011;9900;48.738;9.306;2022-11-24T10:52:20;1.40;;;1.00;;
4652;SDS011;9900;48.738;9.306;2022-11-24T10:54:53;6.53;;;1.80;;
4652;SDS011;9900;48.738;9.306;2022-11-24T10:57:27;1.00;;;0.60;;
4652;SDS011;9900;48.738;9.306;2022-11-24T10:59:57;1.33;;;0.70;;
4652;SDS011;9900;48.738;9.306;2022-11-24T11:02:30;1.67;;;0.90;;
4652;SDS011;9900;48.738;9.306;2022-11-24T11:10:46;2.83;;;1.00;;
4652;SDS011;9900;48.738;9.306;2022-11-24T11:13:23;1.47;;;1.13;;
4652;SDS011;9900;48.738;9.306;2022-11-24T11:15:53;1.30;;;0.70;;
4652;SDS011;9900;48.738;9.306;2022-11-24T11:18:24;0.90;;;0.60;;
4652;SDS011;9900;48.738;9.306;2022-11-24T11:20:57;1.47;;;0.80;;
4652;SDS011;9900;48.738;9.306;2022-11-24T11:23:30;0.97;;;0.70;;
4652;SDS011;9900;48.738;9.306;2022-11-24T11:26:18;0.70;;;0.60;;
4652;SDS011;9900;48.738;9.306;2022-11-24T11:28:58;5.13;;;0.70;;
4652;SDS011;9900;48.738;9.306;2022-11-24T11:31:55;1.30;;;0.80;;
4652;SDS011;9900;48.738;9.306;2022-11-24T11:34:46;6.77;;;1.40;;
4652;SDS011;9900;48.738;9.306;2022-11-24T11:37:15;1.33;;;0.80;;
4652;SDS011;9900;48.738;9.306;2022-11-24T11:39:47;0.90;;;0.77;;
4652;SDS011;9900;48.738;9.306;2022-11-24T11:42:21;2.13;;;0.77;;
4652;SDS011;9900;48.738;9.306;2022-11-24T11:45:13;1.30;;;0.90;;
4652;SDS011;9900;48.738;9.306;2022-11-24T11:47:45;1.30;;;0.70;;
4652;SDS011;9900;48.738;9.306;2022-11-24T11:50:19;1.10;;;0.90;;
4652;SDS011;9900;48.738;9.306;2022-11-24T11:53:04;1.20;;;0.90;;
4652;SDS011;9900;48.738;9.306;2022-11-24T11:55:44;3.57;;;1.00;;
4652;SDS011;9900;48.738;9.306;2022-11-24T12:01:11;1.83;;;0.80;;
4652;SDS011;9900;48.738;9.306;2022-11-24T12:03:49;2.57;;;1.27;;
4652;SDS011;9900;48.738;9.306;2022-11-24T12:06:29;1.67;;;0.90;;
4652;SDS011;9900;48.738;9.306;2022-11-24T12:09:08;3.53;;;1.23;;
4652;SDS011;9900;48.738;9.306;2022-11-24T12:11:52;2.33;;;1.00;;
4652;SDS011;9900;48.738;9.306;2022-11-24T12:14:31;1.10;;;0.80;;
4652;SDS011;9900;48.738;9.306;2022-11-24T12:17:06;1.20;;;0.90;;
4652;SDS011;9900;48.738;9.306;2022-11-24T12:19:44;1.47;;;1.07;;
4652;SDS011;9900;48.738;9.306;2022-11-24T12:22:21;4.23;;;0.83;;
4652;SDS011;9900;48.738;9.306;2022-11-24T12:24:54;3.57;;;1.03;;
4652;SDS011;9900;48.738;9.306;2022-11-24T12:27:30;6.83;;;1.00;;
4652;SDS011;9900;48.738;9.306;2022-11-24T12:30:10;2.63;;;1.00;;
4652;SDS011;9900;48.738;9.306;2022-11-24T12:32:43;1.37;;;0.80;;
4652;SDS011;9900;48.738;9.306;2022-11-24T12:35:24;5.27;;;1.30;;
4652;SDS011;9900;48.738;9.306;2022-11-24T12:37:59;1.00;;;0.90;;
4652;SDS011;9900;48.738;9.306;2022-11-24T12:40:34;8.50;;;1.30;;
4652;SDS011;9900;48.738;9.306;2022-11-24T12:43:16;4.00;;;1.00;;
4652;SDS011;9900;48.738;9.306;2022-11-24T12:45:50;3.37;;;0.73;;
4652;SDS011;9900;48.738;9.306;2022-11-24T12:48:32;3.13;;;1.67;;
4652;SDS011;9900;48.738;9.306;2022-11-24T12:51:11;1.17;;;0.80;;
4652;SDS011;9900;48.738;9.306;2022-11-24T12:53:43;5.03;;;1.00;;
4652;SDS011;9900;48.738;9.306;2022-11-24T12:56:13;10.43;;;1.67;;
4652;SDS011;9900;48.738;9.306;2022-11-24T12:58:46;6.10;;;1.53;;
4652;SDS011;9900;48.738;9.306;2022-11-24T13:01:22;2.80;;;1.30;;
4652;SDS011;9900;48.738;9.306;2022-11-24T13:04:02;5.23;;;1.30;;
4652;SDS011;9900;48.738;9.306;2022-11-24T13:06:37;3.13;;;1.10;;
4652;SDS011;9900;48.738;9.306;2022-11-24T13:09:16;3.77;;;1.00;;
4652;SDS011;9900;48.738;9.306;2022-11-24T13:11:45;6.47;;;1.33;;
4652;SDS011;9900;48.738;9.306;2022-11-24T13:14:16;5.63;;;1.40;;
4652;SDS011;9900;48.738;9.306;2022-11-24T13:16:48;5.07;;;1.40;;
4652;SDS011;9900;48.738;9.306;2022-11-24T13:19:41;8.73;;;1.07;;
4652;SDS011;9900;48.738;9.306;2022-11-24T13:22:14;4.20;;;1.63;;
4652;SDS011;9900;48.738;9.306;2022-11-24T13:24:44;6.17;;;1.30;;
4652;SDS011;9900;48.738;9.306;2022-11-24T13:27:24;5.07;;;1.17;;
4652;SDS011;9900;48.738;9.306;2022-11-24T13:29:56;3.90;;;1.23;;
4652;SDS011;9900;48.738;9.306;2022-11-24T13:35:27;5.03;;;1.30;;
4652;SDS011;9900;48.738;9.306;2022-11-24T13:37:57;8.17;;;1.10;;
4652;SDS011;9900;48.738;9.306;2022-11-24T13:43:35;5.53;;;1.47;;
4652;SDS011;9900;48.738;9.306;2022-11-24T13:46:07;3.50;;;1.30;;
4652;SDS011;9900;48.738;9.306;2022-11-24T13:51:27;4.00;;;1.30;;
4652;SDS011;9900;48.738;9.306;2022-11-24T13:53:56;7.63;;;1.90;;
4652;SDS011;9900;48.738;9.306;2022-11-24T13:56:27;11.73;;;1.77;;
4652;SDS011;9900;48.738;9.306;2022-11-24T13:58:58;7.33;;;1.90;;
4652;SDS011;9900;48.738;9.306;2022-11-24T14:01:30;6.97;;;1.90;;
4652;SDS011;9900;48.738;9.306;2022-11-24T14:04:02;3.73;;;1.57;;
4652;SDS011;9900;48.738;9.306;2022-11-24T14:06:55;5.00;;;1.70;;
4652;SDS011;9900;48.738;9.306;2022-11-24T14:09:34;5.63;;;1.60;;
4652;SDS011;9900;48.738;9.306;2022-11-24T14:12:06;2.27;;;1.37;;
4652;SDS011;9900;48.738;9.306;2022-11-24T14:14:41;6.30;;;1.60;;
4652;SDS011;9900;48.738;9.306;2022-11-24T14:17:14;8.93;;;1.67;;
4652;SDS011;9900;48.738;9.306;2022-11-24T14:19:44;7.07;;;2.07;;
4652;SDS011;9900;48.738;9.306;2022-11-24T14:22:15;9.53;;;1.80;;
4652;SDS011;9900;48.738;9.306;2022-11-24T14:24:45;6.13;;;1.50;;
4652;SDS011;9900;48.738;9.306;2022-11-24T14:27:20;6.53;;;1.47;;
4652;SDS011;9900;48.738;9.306;2022-11-24T14:29:54;3.57;;;1.23;;
4652;SDS011;9900;48.738;9.306;2022-11-24T14:32:24;8.97;;;2.00;;
4652;SDS011;9900;48.738;9.306;2022-11-24T14:34:53;2.13;;;1.50;;
4652;SDS011;9900;48.738;9.306;2022-11-24T14:37:23;8.07;;;2.10;;
4652;SDS011;9900;48.738;9.306;2022-11-24T14:39:52;5.87;;;1.60;;
4652;SDS011;9900;48.738;9.306;2022-11-24T14:42:21;3.33;;;1.37;;
4652;SDS011;9900;48.738;9.306;2022-11-24T14:44:51;6.03;;;1.60;;
4652;SDS011;9900;48.738;9.306;2022-11-24T14:47:23;5.20;;;1.70;;
4652;SDS011;9900;48.738;9.306;2022-11-24T14:50:06;4.73;;;1.60;;
4652;SDS011;9900;48.738;9.306;2022-11-24T14:52:40;5.90;;;1.33;;
4652;SDS011;9900;48.738;9.306;2022-11-24T14:55:22;7.47;;;2.07;;
4652;SDS011;9900;48.738;9.306;2022-11-24T14:57:52;2.90;;;1.10;;
4652;SDS011;9900;48.738;9.306;2022-11-24T15:00:24;6.33;;;1.93;;
4652;SDS011;9900;48.738;9.306;2022-11-24T15:03:06;5.73;;;1.80;;
4652;SDS011;9900;48.738;9.306;2022-11-24T15:05:49;6.93;;;2.27;;
4652;SDS011;9900;48.738;9.306;2022-11-24T15:08:19;5.97;;;2.10;;
4652;SDS011;9900;48.738;9.306;2022-11-24T15:10:50;7.03;;;1.90;;
4652;SDS011;9900;48.738;9.306;2022-11-24T15:13:23;18.77;;;2.87;;
4652;SDS011;9900;48.738;9.306;2022-11-24T15:15:52;10.90;;;1.80;;
4652;SDS011;9900;48.738;9.306;2022-11-24T15:18:34;5.30;;;1.43;;
4652;SDS011;9900;48.738;9.306;2022-11-24T15:21:05;5.10;;;1.47;;
4652;SDS011;9900;48.738;9.306;2022-11-24T15:23:34;10.23;;;2.00;;
4652;SDS011;9900;48.738;9.306;2022-11-24T15:26:23;6.87;;;2.70;;
4652;SDS011;9900;48.738;9.306;2022-11-24T15:29:01;7.20;;;1.80;;
4652;SDS011;9900;48.738;9.306;2022-11-24T15:31:30;5.50;;;1.73;;
4652;SDS011;9900;48.738;9.306;2022-11-24T15:34:01;8.90;;;2.20;;
4652;SDS011;9900;48.738;9.306;2022-11-24T15:36:29;12.80;;;2.50;;
4652;SDS011;9900;48.738;9.306;2022-11-24T15:38:58;5.63;;;2.20;;
4652;SDS011;9900;48.738;9.306;2022-11-24T15:41:27;9.23;;;2.50;;
4652;SDS011;9900;48.738;9.306;2022-11-24T15:43:57;7.23;;;1.80;;
4652;SDS011;9900;48.738;9.306;2022-11-24T15:46:26;6.97;;;1.90;;
4652;SDS011;9900;48.738;9.306;2022-11-24T15:48:56;3.20;;;1.67;;
4652;SDS011;9900;48.738;9.306;2022-11-24T15:51:26;11.27;;;3.00;;
4652;SDS011;9900;48.738;9.306;2022-11-24T15:53:54;11.03;;;2.10;;
4652;SDS011;9900;48.738;9.306;2022-11-24T15:56:28;7.80;;;1.90;;
4652;SDS011;9900;48.738;9.306;2022-11-24T15:58:58;7.97;;;1.80;;